Etusivu
METAR-TAF:

METAR-TAF

Lentoasemat :

Grider Field

Pine Bluff, Arkansas, Yhdysvallat

Leveyspiiri: 34-10-30N, Pituuspiiri: 091-56-05W, korkeus merenpinnasta: 63 m

Tämänhetkinen sää

Tämä raportti tehtiin 1 tunti ja 6 minuuttia sitten, kello 07.53 UTC
tyyntä
Lämpötila 3°C
Kosteus 87%
Ilmanpaine 1031 hPa
Näkyvyys: 16.1 km
selkeää

METAR: KPBF 080753Z AUTO 00000KT 10SM CLR 03/01 A3045 RMK AO2 SLP311 T00330006

Aika: 02:59 (08:59 UTC)

Sääennuste

Tämä raportti tehtiin 3 tuntia ja 35 minuuttia sitten, kello 05.24 UTC
Ennuste voimassa 08. päivästä klo 06 UTC - 09. päivään klo 06 UTC
Tuuli 7 kn kaakosta
Näkyvyys: 10 km
Hajanaisia pilviä 25000 ft:n korkeudessa
From 08. päivästä klo 1500 UTC
Tuuli 10 kn etelästä
Näkyvyys: 10 km
selkeää

TAF: KPBF 080524Z 0806/0906 13007KT P6SM SCT250 FM081500 18010KT P6SM SKC

Säähavainnot ja -ennusteet yli 4000 lentoasemalta (METAR- ja TAF-raportit).

Käytössä olevat sääasemat on merkitty karttaan keltaisilla ja punaisilla pisteillä.

Aseta hiiri pisteen päälle nähdäksesi sääaseman nimen.

Klikkaa sitten nähdäksesi säähavainnot ja -ennusteet.

Kartan vaihtaminen: klikkaa mustalla rastilla varustettuja vihreitä pisteitä, niin voit zoomata sisään; viivalla varustettua vihreää pistettä, niin voit zoomata ulos tai vihreitä nuolia, niin pääset viereisille kartoille.


METAR-TAF: